Time;durP1;ratioP1;P1;durP2;ratioP2;P2;SDS_P1;SDS_P2;PMS_P1;PMS_P2;Temp;Humidity;BMP_temperature;BMP_pressure;BME280_temperature;BME280_humidity;BME280_pressure;Samples;Min_cycle;Max_cycle;Signal;HPM_P1;HPM_P2
2022/11/25 00:01:23;;;;;;;16.13;6.68;;;;;;;12.77;100.00;100634.41;10255354;28;96973;-84
2022/11/25 00:06:27;;;;;;;;;;;;;;;12.74;100.00;100636.28;10255960;28;96729;-84
2022/11/25 00:11:35;;;;;;;11.18;5.93;;;;;;;12.74;100.00;100642.38;10253474;28;96819;-84
2022/11/25 00:16:40;;;;;;;14.40;5.75;;;;;;;12.74;100.00;100644.16;10255246;28;96692;-84
2022/11/25 00:21:50;;;;;;;12.40;5.25;;;;;;;12.61;100.00;100656.81;10254830;28;96839;-83
2022/11/25 00:26:54;;;;;;;11.50;4.70;;;;;;;12.53;100.00;100671.94;10254058;28;96551;-84
2022/11/25 00:31:58;;;;;;;15.40;4.75;;;;;;;12.60;100.00;100687.44;10253746;28;96872;-84
2022/11/25 00:37:01;;;;;;;11.15;4.55;;;;;;;12.68;100.00;100697.66;10253484;28;96554;-84
2022/11/25 00:47:28;;;;;;;13.85;4.97;;;;;;;12.71;100.00;100721.19;10254839;28;96739;-84
2022/11/25 00:52:35;;;;;;;;;;;;;;;12.69;100.00;100723.00;10254430;28;97095;-83
2022/11/25 00:57:40;;;;;;;10.88;4.88;;;;;;;12.71;100.00;100726.44;10253914;28;96780;-83
2022/11/25 01:02:43;;;;;;;18.23;6.07;;;;;;;12.69;100.00;100734.34;10214499;28;96882;-84
2022/11/25 01:07:47;;;;;;;17.38;5.60;;;;;;;12.66;100.00;100736.22;10246277;28;96797;-83
2022/11/25 01:12:51;;;;;;;14.60;5.50;;;;;;;12.64;100.00;100748.53;10253407;28;96852;-83
2022/11/25 01:17:55;;;;;;;13.48;4.45;;;;;;;12.64;100.00;100759.03;10228958;28;96779;-84
2022/11/25 01:22:58;;;;;;;14.25;5.25;;;;;;;12.64;100.00;100772.16;10213102;28;96887;-84
2022/11/25 01:28:03;;;;;;;73.15;8.82;;;;;;;12.63;100.00;100778.31;10212018;28;96619;-83
2022/11/25 01:33:06;;;;;;;113.13;11.35;;;;;;;12.59;100.00;100788.03;10212820;28;96824;-84
2022/11/25 01:38:10;;;;;;;46.88;6.93;;;;;;;12.56;100.00;100800.41;10212852;28;96846;-84
2022/11/25 01:43:15;;;;;;;16.17;5.80;;;;;;;12.52;100.00;100804.03;10211543;28;97550;-83
2022/11/25 01:48:21;;;;;;;;;;;;;;;12.42;100.00;100793.84;10212653;28;96933;-83
2022/11/25 01:53:25;;;;;;;15.23;6.03;;;;;;;12.42;100.00;100793.84;10211386;28;96942;-83
2022/11/25 01:58:33;;;;;;;18.33;6.28;;;;;;;12.34;100.00;100793.22;10211416;28;96792;-83
2022/11/25 02:03:42;;;;;;;13.70;5.68;;;;;;;12.23;100.00;100790.03;10211122;28;96866;-83
2022/11/25 02:08:50;;;;;;;13.43;6.30;;;;;;;12.12;100.00;100791.22;10234784;28;96863;-83
2022/11/25 02:13:55;;;;;;;17.67;6.07;;;;;;;12.01;100.00;100788.06;10251578;28;96771;-83
2022/11/25 02:18:58;;;;;;;15.35;5.15;;;;;;;11.91;100.00;100799.72;10251435;28;96719;-83
2022/11/25 02:24:09;;;;;;;16.60;5.00;;;;;;;11.78;100.00;100806.19;10250547;28;96715;-83
2022/11/25 02:29:14;;;;;;;15.10;3.88;;;;;;;11.69;100.00;100831.78;10251017;28;96671;-84
2022/11/25 02:34:17;;;;;;;22.27;4.72;;;;;;;11.64;100.00;100832.78;10251368;28;96755;-83
2022/11/25 02:39:22;;;;;;;18.80;4.40;;;;;;;11.59;100.00;100847.75;10250863;28;97364;-83
2022/11/25 02:44:27;;;;;;;16.53;4.00;;;;;;;11.49;100.00;100842.78;10248862;28;96868;-83
2022/11/25 02:49:30;;;;;;;20.02;4.22;;;;;;;11.48;100.00;100850.66;10250150;28;96815;-83
2022/11/25 02:54:33;;;;;;;17.88;3.83;;;;;;;11.42;100.00;100843.00;10250576;28;97319;-83
2022/11/25 02:59:38;;;;;;;17.65;4.25;;;;;;;11.30;100.00;100844.13;10233367;28;96706;-83
2022/11/25 03:04:41;;;;;;;18.83;4.95;;;;;;;11.21;100.00;100836.50;10216969;28;96813;-83
2022/11/25 03:09:45;;;;;;;16.17;3.75;;;;;;;11.25;100.00;100846.00;10216405;28;96613;-83
2022/11/25 03:14:50;;;;;;;23.75;4.18;;;;;;;11.19;100.00;100844.41;10217435;28;97092;-83
2022/11/25 03:19:53;;;;;;;34.67;5.63;;;;;;;11.40;100.00;100857.84;10217284;28;96816;-83
2022/11/25 03:24:56;;;;;;;23.38;5.00;;;;;;;11.52;100.00;100849.72;10216511;28;96751;-83
2022/11/25 03:30:01;;;;;;;27.23;5.35;;;;;;;11.36;100.00;100846.59;10216263;28;96878;-83
2022/11/25 03:35:04;;;;;;;38.40;5.20;;;;;;;11.22;100.00;100851.31;10215605;28;96710;-83
2022/11/25 03:40:10;;;;;;;16.50;5.10;;;;;;;11.16;100.00;100852.34;10215935;28;96699;-83
2022/11/25 03:45:16;;;;;;;21.05;4.13;;;;;;;11.30;100.00;100844.97;10215879;28;96597;-83
2022/11/25 03:50:19;;;;;;;18.33;4.03;;;;;;;11.23;100.00;100842.56;10227608;28;97050;-83
2022/11/25 03:55:22;;;;;;;26.92;4.75;;;;;;;11.31;100.00;100851.06;10255872;28;96793;-83
2022/11/25 04:00:27;;;;;;;32.50;5.40;;;;;;;11.41;100.00;100847.34;10255328;28;96617;-83
2022/11/25 04:05:30;;;;;;;34.80;6.10;;;;;;;11.28;100.00;100854.63;10250398;28;96879;-83
2022/11/25 04:10:33;;;;;;;39.35;5.47;;;;;;;11.19;100.00;100852.25;10214198;28;96865;-83
2022/11/25 04:15:38;;;;;;;18.85;4.60;;;;;;;11.14;100.00;100847.13;10214811;28;96774;-84
2022/11/25 04:20:41;;;;;;;43.35;5.53;;;;;;;11.23;100.00;100856.50;10214293;28;97425;-83
2022/11/25 04:25:44;;;;;;;16.58;4.47;;;;;;;11.26;100.00;100859.06;10213806;28;96687;-84
2022/11/25 04:30:49;;;;;;;23.73;4.80;;;;;;;11.44;100.00;100864.75;10213689;28;96872;-83
2022/11/25 04:35:53;;;;;;;29.63;5.22;;;;;;;11.50;100.00;100875.06;10214401;28;96740;-83
2022/11/25 04:40:57;;;;;;;25.13;4.20;;;;;;;11.44;100.00;100875.22;10214619;28;96731;-83
2022/11/25 04:46:04;;;;;;;167.77;9.65;;;;;;;11.27;100.00;100868.63;10213872;28;96752;-83
2022/11/25 04:51:16;;;;;;;80.22;6.85;;;;;;;11.27;100.00;100868.63;10240657;28;98169;-83
2022/11/25 04:56:20;;;;;;;85.75;7.18;;;;;;;11.33;100.00;100878.97;10250632;28;96695;-83
2022/11/25 05:01:25;;;;;;;22.37;5.20;;;;;;;11.33;100.00;100883.38;10214225;28;96637;-83
2022/11/25 05:06:28;;;;;;;29.40;4.75;;;;;;;11.26;100.00;100892.22;10213352;28;96698;-83
2022/11/25 05:11:31;;;;;;;26.83;4.13;;;;;;;11.33;100.00;100904.31;10212749;28;97972;-83
2022/11/25 05:16:36;;;;;;;53.95;5.65;;;;;;;11.27;100.00;100904.41;10212437;28;96674;-84
2022/11/25 05:21:39;;;;;;;76.90;6.47;;;;;;;11.32;100.00;100911.28;10212343;28;97154;-84
2022/11/25 05:26:42;;;;;;;73.15;6.43;;;;;;;11.30;100.00;100918.28;10212629;28;96720;-83
2022/11/25 05:31:47;;;;;;;105.05;7.95;;;;;;;11.15;100.00;100927.34;10212676;28;96821;-84
2022/11/25 05:36:50;;;;;;;119.35;9.82;;;;;;;11.14;100.00;100925.66;10211983;28;96798;-84
2022/11/25 05:41:54;;;;;;;320.95;21.40;;;;;;;11.22;100.00;100932.47;10212226;28;96570;-84
2022/11/25 05:46:58;;;;;;;35.83;5.57;;;;;;;11.25;100.00;100948.97;10212134;28;96713;-83
2022/11/25 05:52:01;;;;;;;309.15;18.20;;;;;;;11.29;100.00;100955.81;10245954;28;97053;-83
2022/11/25 05:57:05;;;;;;;69.22;6.63;;;;;;;11.27;100.00;100962.00;10251309;28;96742;-83
2022/11/25 06:02:09;;;;;;;242.70;15.38;;;;;;;11.21;100.00;100978.72;10251906;28;96989;-83
2022/11/25 06:07:12;;;;;;;159.98;13.13;;;;;;;11.24;100.00;100994.38;10250050;28;96752;-84
2022/11/25 06:12:16;;;;;;;83.45;7.93;;;;;;;11.20;100.00;101003.19;10251369;28;96592;-84
2022/11/25 06:17:20;;;;;;;105.13;7.93;;;;;;;11.15;100.00;101010.28;10251232;28;96751;-84
2022/11/25 06:22:23;;;;;;;84.97;7.25;;;;;;;11.12;100.00;101023.41;10250243;28;96969;-84
2022/11/25 06:27:27;;;;;;;59.20;6.35;;;;;;;11.08;100.00;101040.09;10251040;28;96562;-83
2022/11/25 06:32:51;;;;;;;114.55;8.60;;;;;;;11.07;100.00;101046.22;10253447;28;96769;-83
2022/11/25 06:37:54;;;;;;;77.97;7.18;;;;;;;11.07;100.00;101054.94;10257823;28;96672;-83
2022/11/25 06:42:58;;;;;;;166.50;11.25;;;;;;;11.05;100.00;101061.09;10258595;28;96713;-83
2022/11/25 06:48:02;;;;;;;52.58;6.30;;;;;;;11.07;100.00;101062.81;10257738;28;97282;-83
2022/11/25 06:53:05;;;;;;;107.93;8.60;;;;;;;11.09;100.00;101084.56;10257675;28;96566;-84
2022/11/25 06:58:08;;;;;;;29.10;5.53;;;;;;;10.99;100.00;101089.13;10230435;28;97865;-83
2022/11/25 07:03:33;;;;;;;50.03;4.90;;;;;;;11.00;100.00;101110.94;10216972;28;96721;-83
2022/11/25 07:08:36;;;;;;;18.50;4.15;;;;;;;11.01;100.00;101111.78;10246978;28;96663;-83
2022/11/25 07:13:40;;;;;;;61.35;6.85;;;;;;;11.00;100.00;101103.09;10243151;28;96682;-83
2022/11/25 07:18:44;;;;;;;25.85;4.95;;;;;;;11.01;100.00;101117.03;10216457;28;96816;-83
2022/11/25 07:23:49;;;;;;;17.83;4.72;;;;;;;11.02;100.00;101124.00;10216490;28;96761;-84
2022/11/25 07:28:53;;;;;;;88.33;8.17;;;;;;;11.07;100.00;101140.44;10215836;28;96769;-83
2022/11/25 07:34:00;;;;;;;26.13;5.30;;;;;;;11.07;100.00;101146.56;10257306;28;96896;-84
2022/11/25 07:39:07;;;;;;;77.97;7.60;;;;;;;11.03;100.00;101152.72;10256098;28;96768;-84
2022/11/25 07:44:12;;;;;;;38.85;5.50;;;;;;;11.02;100.00;101156.25;10255937;28;96676;-84
2022/11/25 07:49:18;;;;;;;64.82;6.78;;;;;;;11.01;100.00;101169.38;10227826;28;96791;-84
2022/11/25 07:54:22;;;;;;;11.48;3.38;;;;;;;10.98;100.00;101179.00;10215242;28;96696;-84
2022/11/25 07:59:25;;;;;;;149.27;10.93;;;;;;;11.03;100.00;101173.66;10215082;28;97274;-83
2022/11/25 08:04:29;;;;;;;53.88;5.72;;;;;;;11.07;100.00;101192.78;10227283;28;97215;-84
2022/11/25 08:09:33;;;;;;;97.05;7.43;;;;;;;11.04;100.00;101198.09;10255574;28;96707;-84
2022/11/25 08:14:37;;;;;;;41.88;4.60;;;;;;;10.94;100.00;101216.56;10255226;28;97289;-83
2022/11/25 08:19:41;;;;;;;73.65;6.05;;;;;;;10.86;100.00;101233.31;10255007;28;96786;-83
2022/11/25 08:24:44;;;;;;;50.72;5.18;;;;;;;10.90;100.00;101241.09;10255094;28;97084;-84
2022/11/25 08:29:48;;;;;;;24.92;4.70;;;;;;;11.03;100.00;101261.81;10254082;28;96857;-84
2022/11/25 08:34:52;;;;;;;80.22;7.32;;;;;;;11.14;100.00;101254.63;10254290;28;96794;-83
2022/11/25 08:39:55;;;;;;;37.33;4.80;;;;;;;11.16;100.00;101268.56;10253213;28;96842;-83
2022/11/25 08:45:00;;;;;;;19.33;3.60;;;;;;;11.19;100.00;101276.34;10253617;28;96830;-83
2022/11/25 08:50:06;;;;;;;32.17;3.80;;;;;;;11.26;100.00;101275.34;10254405;28;97072;-83
2022/11/25 08:55:10;;;;;;;9.82;3.25;;;;;;;11.22;100.00;101286.75;10243249;28;96847;-83
2022/11/25 09:00:14;;;;;;;15.50;3.70;;;;;;;11.34;100.00;101302.25;10213644;28;96988;-80
2022/11/25 09:05:19;;;;;;;32.65;4.78;;;;;;;11.55;100.00;101302.75;10220932;28;97241;-81
2022/11/25 09:10:23;;;;;;;96.28;7.22;;;;;;;11.65;100.00;101299.06;10231498;28;97339;-91
2022/11/25 09:15:26;;;;;;;12.15;4.38;;;;;;;11.82;100.00;101313.59;10240471;28;99264;-78
2022/11/25 09:20:31;;;;;;;34.78;4.88;;;;;;;11.86;100.00;101323.97;10241179;28;100939;-77
2022/11/25 09:25:34;;;;;;;;;;;;;;;11.81;100.00;101335.47;10237605;28;98902;-78
2022/11/25 09:30:38;;;;;;;19.73;4.22;;;;;;;11.85;100.00;101347.59;10235647;28;97474;-77
2022/11/25 09:35:43;;;;;;;17.92;4.75;;;;;;;11.77;100.00;101344.28;10262927;28;96877;-78
2022/11/25 09:40:52;;;;;;;13.55;3.92;;;;;;;11.91;100.00;101344.88;10230824;28;101024;-76
2022/11/25 09:51:38;;;;;;;7.88;3.75;;;;;;;12.31;100.00;101355.38;10240434;28;99149;-77
2022/11/25 09:56:46;;;;;;;9.18;4.25;;;;;;;12.67;100.00;101359.84;10259703;28;96805;-77
2022/11/25 10:01:54;;;;;;;9.65;3.38;;;;;;;12.65;100.00;101359.03;10237022;28;98790;-77
2022/11/25 10:07:02;;;;;;;10.00;3.45;;;;;;;12.59;100.00;101361.78;10237497;28;98193;-83
2022/11/25 10:12:13;;;;;;;10.38;3.50;;;;;;;12.41;100.00;101361.28;10239476;28;99032;-74
2022/11/25 10:17:31;;;;;;;9.68;3.50;;;;;;;12.31;100.00;101367.63;10245160;28;96968;-78
2022/11/25 10:22:39;;;;;;;7.15;3.40;;;;;;;12.28;100.00;101368.56;10230642;28;98966;-75
2022/11/25 10:27:45;;;;;;;12.55;3.70;;;;;;;12.27;100.00;101365.97;10235809;28;97721;-83
2022/11/25 10:32:52;;;;;;;10.88;3.15;;;;;;;12.31;100.00;101362.38;10230088;28;99116;-82
2022/11/25 10:38:10;;;;;;;10.88;3.72;;;;;;;12.29;100.00;101353.69;10248688;28;98905;-89
2022/11/25 10:43:21;;;;;;;11.18;3.42;;;;;;;12.37;100.00;101350.91;10241369;28;98506;-78
2022/11/25 10:48:45;;;;;;;13.43;3.65;;;;;;;12.38;100.00;101353.47;10240307;28;98896;-76
2022/11/25 10:54:11;;;;;;;10.25;3.70;;;;;;;12.55;100.00;101347.03;10239303;28;98547;-83
2022/11/25 10:59:22;;;;;;;10.38;3.58;;;;;;;12.65;100.00;101340.66;10241553;28;97644;-74
2022/11/25 11:04:25;;;;;;;7.93;2.70;;;;;;;12.75;100.00;101346.53;10246884;28;97002;-75
2022/11/25 11:09:35;;;;;;;11.40;2.97;;;;;;;12.90;100.00;101343.56;10243715;28;98420;-76
2022/11/25 11:14:38;;;;;;;14.07;3.60;;;;;;;13.02;100.00;101339.81;10236792;28;98333;-75
2022/11/25 11:19:42;;;;;;;10.00;3.85;;;;;;;13.08;100.00;101339.63;10229766;28;98648;-75
2022/11/25 11:24:46;;;;;;;9.38;3.55;;;;;;;13.18;100.00;101337.66;10254985;28;99445;-75
2022/11/25 11:30:08;;;;;;;11.13;3.08;;;;;;;13.11;100.00;101329.06;10253431;28;97027;-79
2022/11/25 11:35:23;;;;;;;7.82;3.00;;;;;;;13.03;100.00;101326.63;10252598;28;99502;-79
2022/11/25 11:40:36;;;;;;;8.38;2.83;;;;;;;13.03;100.00;101320.50;10243551;28;98790;-79
2022/11/25 11:45:59;;;;;;;11.40;3.10;;;;;;;13.07;100.00;101300.31;10239202;28;97592;-77
2022/11/25 11:51:13;;;;;;;9.35;2.20;;;;;;;13.14;100.00;101294.84;10235571;28;97241;-77
2022/11/25 11:56:27;;;;;;;8.65;2.28;;;;;;;13.33;100.00;101276.84;10231931;28;97759;-75
2022/11/25 12:01:49;;;;;;;6.63;1.73;;;;;;;13.43;100.00;101262.56;10250566;28;96885;-77
2022/11/25 12:07:02;;;;;;;6.70;1.73;;;;;;;13.54;100.00;101249.09;10233517;28;100427;-81
2022/11/25 12:12:13;;;;;;;8.57;2.13;;;;;;;13.46;100.00;101230.06;10244787;28;97123;-78
2022/11/25 12:17:21;;;;;;;5.53;2.00;;;;;;;13.39;100.00;101223.25;10251086;28;98404;-78
2022/11/25 12:22:29;;;;;;;8.15;1.77;;;;;;;13.34;100.00;101209.38;10244076;28;99361;-78
2022/11/25 12:27:38;;;;;;;4.38;1.25;;;;;;;13.34;100.00;101206.75;10254775;28;97572;-77
2022/11/25 12:32:53;;;;;;;4.85;1.20;;;;;;;13.30;100.00;101205.13;10246178;28;96871;-77
2022/11/25 12:38:02;;;;;;;3.53;1.38;;;;;;;13.37;100.00;101193.53;10248087;28;97696;-85
2022/11/25 12:43:26;;;;;;;6.40;1.40;;;;;;;13.36;100.00;101184.81;10251005;28;99316;-80
2022/11/25 12:48:29;;;;;;;6.13;1.52;;;;;;;13.37;100.00;101167.28;10245234;28;98839;-80
2022/11/25 12:53:39;;;;;;;5.75;1.55;;;;;;;13.46;100.00;101150.38;10237938;28;97921;-80
2022/11/25 12:58:55;;;;;;;4.68;1.42;;;;;;;13.40;100.00;101148.81;10248046;28;97284;-80
2022/11/25 13:04:37;;;;;;;3.88;1.23;;;;;;;13.52;100.00;101137.94;10235878;28;98912;-80
2022/11/25 13:10:06;;;;;;;5.63;1.65;;;;;;;13.62;100.00;101125.38;10232590;28;98903;-84
2022/11/25 13:15:24;;;;;;;4.78;1.48;;;;;;;14.29;100.00;101110.97;10248990;28;96905;-84
2022/11/25 13:20:48;;;;;;;4.32;1.20;;;;;;;15.90;100.00;101100.69;10251206;28;96770;-84
2022/11/25 13:25:53;;;;;;;3.75;1.08;;;;;;;16.78;100.00;101067.03;10222360;28;97065;-86
2022/11/25 13:31:17;;;;;;;5.70;1.65;;;;;;;17.16;100.00;101055.63;10235441;28;99159;-82
2022/11/25 13:36:23;;;;;;;4.45;1.20;;;;;;;17.90;100.00;101052.97;10232831;28;98951;-79
2022/11/25 13:41:45;;;;;;;2.58;1.20;;;;;;;18.33;100.00;101039.34;10231040;28;97777;-80
2022/11/25 13:46:52;;;;;;;5.63;1.20;;;;;;;17.90;100.00;101045.03;10236782;28;99128;-80
2022/11/25 13:51:58;;;;;;;4.32;1.30;;;;;;;16.75;100.00;101042.53;10231913;28;98522;-80
2022/11/25 13:57:19;;;;;;;3.90;1.63;;;;;;;16.00;100.00;101033.47;10243143;28;98062;-83
2022/11/25 14:02:43;;;;;;;4.00;1.52;;;;;;;15.47;100.00;101032.91;10245956;28;96916;-81
2022/11/25 14:07:52;;;;;;;;;;;;;;;15.66;100.00;101040.13;10242912;28;99117;-78
2022/11/25 14:13:17;;;;;;;5.15;1.58;;;;;;;16.15;100.00;101032.78;10240807;28;97709;-83
2022/11/25 14:18:50;;;;;;;3.90;1.30;;;;;;;16.52;100.00;101039.13;10235813;28;97826;-80
2022/11/25 14:24:28;;;;;;;2.72;1.35;;;;;;;16.89;100.00;101034.00;10233041;28;98294;-85
2022/11/25 14:29:38;;;;;;;5.60;1.38;;;;;;;16.95;100.00;101026.66;10232805;28;97454;-82
2022/11/25 14:34:45;;;;;;;3.33;1.60;;;;;;;17.17;100.00;101021.19;10234930;28;98134;-75
2022/11/25 14:39:56;;;;;;;5.97;1.83;;;;;;;17.52;100.00;101023.06;10243393;28;97604;-87
2022/11/25 14:44:59;;;;;;;3.85;1.27;;;;;;;17.57;100.00;101026.34;10233041;28;97525;-82
2022/11/25 14:50:02;;;;;;;3.63;1.30;;;;;;;17.57;100.00;101021.91;10246750;28;97094;-80
2022/11/25 14:55:30;;;;;;;3.60;1.58;;;;;;;17.65;100.00;101023.34;10228573;28;96832;-80
2022/11/25 15:00:33;;;;;;;3.05;1.40;;;;;;;17.53;100.00;101017.72;10216978;28;97199;-80
2022/11/25 15:05:39;;;;;;;4.88;1.20;;;;;;;17.38;100.00;101016.66;10216313;28;96818;-80
2022/11/25 15:10:51;;;;;;;3.40;1.23;;;;;;;17.35;100.00;101006.25;10232881;28;102571;-80
2022/11/25 15:15:56;;;;;;;5.25;1.85;;;;;;;17.19;100.00;100999.97;10233213;28;97097;-80
2022/11/25 15:21:00;;;;;;;3.55;1.65;;;;;;;17.02;100.00;100997.28;10216390;28;96798;-80
2022/11/25 15:26:16;;;;;;;4.47;1.77;;;;;;;16.85;100.00;101000.69;10232874;28;96724;-80
2022/11/25 15:31:21;;;;;;;6.00;2.00;;;;;;;16.73;100.00;101002.13;10221924;28;96748;-80
2022/11/25 15:36:26;;;;;;;5.05;1.80;;;;;;;16.50;100.00;100996.09;10228271;28;96785;-80
2022/11/25 15:41:34;;;;;;;5.50;1.83;;;;;;;16.24;100.00;100991.94;10222411;28;96742;-80
2022/11/25 15:46:38;;;;;;;4.43;1.88;;;;;;;15.98;100.00;101006.25;10267284;28;97219;-80
2022/11/25 15:51:48;;;;;;;5.20;1.80;;;;;;;15.71;100.00;101019.69;10256659;28;96991;-80
2022/11/25 15:56:56;;;;;;;5.18;2.42;;;;;;;15.54;100.00;101012.44;10284839;28;97135;-80
2022/11/25 16:01:59;;;;;;;3.88;1.70;;;;;;;15.22;100.00;101021.63;10246428;28;96916;-80
2022/11/25 16:07:03;;;;;;;6.47;1.92;;;;;;;14.91;100.00;101025.44;10246476;28;100758;-79
2022/11/25 16:12:17;;;;;;;5.95;2.00;;;;;;;14.68;100.00;101032.41;10242783;28;97562;-80
2022/11/25 16:17:20;;;;;;;7.15;2.17;;;;;;;14.53;100.00;101036.44;10255757;28;96664;-80
2022/11/25 16:22:31;;;;;;;8.35;2.50;;;;;;;14.42;100.00;101043.00;10251953;28;96845;-80
2022/11/25 16:27:38;;;;;;;7.43;3.35;;;;;;;14.35;100.00;101058.19;10240264;28;96948;-80
2022/11/25 16:32:41;;;;;;;7.05;3.22;;;;;;;14.26;100.00;101056.69;10254767;28;96886;-80
2022/11/25 16:37:44;;;;;;;5.05;2.88;;;;;;;14.15;100.00;101061.44;10247848;28;96926;-80
2022/11/25 16:42:52;;;;;;;6.75;2.65;;;;;;;14.07;100.00;101059.09;10246349;28;98706;-80
2022/11/25 16:47:56;;;;;;;5.18;2.45;;;;;;;13.97;100.00;101078.72;10238085;28;100701;-79
2022/11/25 16:53:00;;;;;;;8.68;3.00;;;;;;;13.90;100.00;101087.72;10243619;28;97998;-80
2022/11/25 16:58:11;;;;;;;5.77;2.50;;;;;;;13.79;100.00;101098.53;10247918;28;97597;-80
2022/11/25 17:03:14;;;;;;;6.38;3.10;;;;;;;13.76;100.00;101101.28;10233421;28;100584;-79
2022/11/25 17:08:18;;;;;;;6.32;2.85;;;;;;;13.67;100.00;101109.44;10237346;28;97476;-79
2022/11/25 17:13:23;;;;;;;6.47;3.20;;;;;;;13.43;100.00;101122.44;10253485;28;96769;-79
2022/11/25 17:18:26;;;;;;;;;;;;;;;13.18;100.00;101130.19;10219454;28;97317;-79
2022/11/25 17:23:29;;;;;;;7.82;3.25;;;;;;;13.12;100.00;101146.97;10256427;28;98266;-79
2022/11/25 17:28:35;;;;;;;8.38;3.90;;;;;;;13.01;100.00;101149.03;10215171;28;96789;-79
2022/11/25 17:33:41;;;;;;;12.10;4.07;;;;;;;13.01;100.00;101159.53;10268470;28;96737;-79
2022/11/25 17:38:44;;;;;;;8.10;4.53;;;;;;;12.94;100.00;101165.84;10293068;28;96807;-79
2022/11/25 17:43:52;;;;;;;8.65;3.60;;;;;;;12.75;100.00;101166.34;10243735;28;97076;-79
2022/11/25 17:48:55;;;;;;;8.02;3.63;;;;;;;12.67;100.00;101181.41;10236170;28;96669;-79
2022/11/25 17:53:58;;;;;;;11.63;4.93;;;;;;;12.67;100.00;101190.13;10282992;28;96807;-79
2022/11/25 17:59:05;;;;;;;9.13;4.20;;;;;;;12.64;100.00;101191.97;10272919;28;96638;-79
2022/11/25 18:04:21;;;;;;;7.70;4.43;;;;;;;12.52;100.00;101213.28;10273235;28;98394;-79
2022/11/25 18:09:24;;;;;;;8.65;4.47;;;;;;;12.47;100.00;101213.38;10249334;28;96809;-79
2022/11/25 18:14:34;;;;;;;12.32;5.15;;;;;;;12.38;100.00;101221.47;10245124;28;96823;-79
2022/11/25 18:19:37;;;;;;;11.77;5.28;;;;;;;12.28;100.00;101231.31;10213334;28;96715;-79
2022/11/25 18:24:41;;;;;;;10.07;6.38;;;;;;;12.07;100.00;101227.44;10280269;28;96636;-79
2022/11/25 18:29:45;;;;;;;14.30;7.22;;;;;;;11.89;100.00;101224.31;10233515;28;98834;-79
2022/11/25 18:34:49;;;;;;;9.02;5.65;;;;;;;11.81;100.00;101235.88;10209947;28;96801;-79
2022/11/25 18:39:52;;;;;;;10.63;5.45;;;;;;;11.77;100.00;101250.81;10243239;28;100447;-79
2022/11/25 18:44:57;;;;;;;17.30;10.45;;;;;;;11.76;100.00;101266.56;10247529;28;97137;-79
2022/11/25 18:50:00;;;;;;;12.27;6.40;;;;;;;11.70;100.00;101276.25;10242022;28;97551;-79
2022/11/25 18:55:04;;;;;;;10.52;6.13;;;;;;;11.60;100.00;101290.44;10283277;28;96783;-79
2022/11/25 19:00:15;;;;;;;10.52;6.55;;;;;;;11.34;100.00;101310.13;10286615;28;97066;-80
2022/11/25 19:05:34;;;;;;;13.50;7.70;;;;;;;11.24;100.00;101303.31;10247793;28;97017;-79
2022/11/25 19:10:38;;;;;;;11.43;5.28;;;;;;;11.31;100.00;101320.69;10229976;28;98485;-80
2022/11/25 19:15:45;;;;;;;8.02;5.53;;;;;;;11.31;100.00;101325.91;10238774;28;98456;-77
2022/11/25 19:20:48;;;;;;;13.98;6.18;;;;;;;11.27;100.00;101321.56;10231419;28;97651;-79
2022/11/25 19:25:53;;;;;;;11.10;5.90;;;;;;;11.15;100.00;101335.72;10242860;28;96874;-79
2022/11/25 19:30:58;;;;;;;;;;;;;;;10.94;100.00;101334.34;10240664;28;96861;-77
2022/11/25 19:36:01;;;;;;;;;;;;;;;11.00;100.00;101341.25;10234641;28;98791;-78
2022/11/25 19:41:05;;;;;;;8.05;5.40;;;;;;;10.95;100.00;101349.16;10235663;28;98591;-78
2022/11/25 19:46:23;;;;;;;10.45;4.85;;;;;;;10.94;100.00;101344.81;10243234;28;98377;-77
2022/11/25 19:51:34;;;;;;;11.65;5.05;;;;;;;10.94;100.00;101347.41;10250140;28;97063;-72
2022/11/25 20:10:25;;;;;;;10.57;5.38;;;;;;;11.30;100.00;101324.13;10393514;27;96935;-76
2022/11/25 20:15:28;;;;;;;10.45;6.22;;;;;;;11.13;100.00;101341.91;10387136;27;100528;-73
2022/11/25 20:20:33;;;;;;;10.10;5.40;;;;;;;10.87;100.00;101348.41;10387556;27;98983;-75
2022/11/25 20:25:42;;;;;;;8.00;4.35;;;;;;;10.61;100.00;101351.44;10386472;27;97612;-75
2022/11/25 20:30:46;;;;;;;8.82;4.22;;;;;;;10.61;100.00;101359.28;10382957;27;97792;-75
2022/11/25 20:35:51;;;;;;;7.25;4.32;;;;;;;10.57;100.00;101349.75;10389515;27;98984;-75
2022/11/25 20:40:59;;;;;;;8.57;4.88;;;;;;;10.47;100.00;101351.63;10396910;27;96979;-75
2022/11/25 20:46:03;;;;;;;9.07;5.32;;;;;;;10.55;100.00;101352.38;10385495;27;99235;-73
2022/11/25 20:51:12;;;;;;;10.77;5.53;;;;;;;10.54;100.00;101353.25;10386284;27;98865;-74
2022/11/25 20:56:19;;;;;;;10.10;4.97;;;;;;;10.61;100.00;101344.44;10377068;27;99022;-71
2022/11/25 21:01:22;;;;;;;8.48;5.25;;;;;;;10.59;100.00;101345.34;10387445;27;97168;-71
2022/11/25 21:06:28;;;;;;;8.05;4.80;;;;;;;10.67;100.00;101350.47;10385188;28;97545;-71
2022/11/25 21:11:33;;;;;;;7.68;4.60;;;;;;;10.58;100.00;101334.03;10365525;28;97263;-71
2022/11/25 21:16:36;;;;;;;7.60;4.40;;;;;;;10.57;100.00;101336.69;10369083;28;97200;-72
2022/11/25 21:21:41;;;;;;;10.10;5.22;;;;;;;10.51;100.00;101334.13;10361447;28;97554;-71
2022/11/25 21:26:45;;;;;;;;;;;;;;;10.51;100.00;101334.13;10367274;28;97071;-71
2022/11/25 21:31:49;;;;;;;9.30;4.82;;;;;;;10.49;100.00;101333.31;10362537;28;98259;-72
2022/11/25 21:36:53;;;;;;;6.82;4.25;;;;;;;10.38;100.00;101339.53;10365228;28;98793;-70
2022/11/25 21:42:00;;;;;;;10.03;4.70;;;;;;;10.43;100.00;101344.72;10365904;28;98562;-71
2022/11/25 21:47:12;;;;;;;7.65;4.35;;;;;;;10.40;100.00;101334.28;10354371;28;98946;-73
2022/11/25 21:52:15;;;;;;;8.52;4.82;;;;;;;10.46;100.00;101335.94;10367589;28;98531;-71
2022/11/25 21:57:31;;;;;;;10.52;4.50;;;;;;;10.36;100.00;101343.06;10354751;28;98500;-71
2022/11/25 22:02:34;;;;;;;10.95;5.18;;;;;;;10.34;100.00;101348.31;10352761;28;100013;-72
2022/11/25 22:07:38;;;;;;;7.60;4.57;;;;;;;10.40;100.00;101355.22;10354912;28;99299;-72
2022/11/25 22:12:45;;;;;;;11.77;4.82;;;;;;;10.28;100.00;101371.06;10366299;28;96900;-72
2022/11/25 22:17:52;;;;;;;10.98;4.88;;;;;;;10.11;100.00;101377.34;10370381;28;97095;-72
2022/11/25 22:22:55;;;;;;;10.05;4.78;;;;;;;9.96;100.00;101380.19;10354889;28;96905;-72
2022/11/25 22:28:00;;;;;;;8.25;4.88;;;;;;;9.88;100.00;101389.84;10368327;28;97230;-72
2022/11/25 22:33:03;;;;;;;12.10;5.28;;;;;;;9.69;100.00;101392.63;10371168;28;97820;-72
2022/11/25 22:38:13;;;;;;;10.45;4.78;;;;;;;9.53;100.00;101396.28;10380385;28;97075;-72
2022/11/25 22:43:20;;;;;;;10.50;4.65;;;;;;;9.63;100.00;101395.31;10360239;28;98570;-72
2022/11/25 22:48:30;;;;;;;9.77;5.00;;;;;;;9.60;100.00;101392.72;10363732;28;96918;-73
2022/11/25 22:53:33;;;;;;;8.63;5.03;;;;;;;9.51;100.00;101398.91;10374677;28;97657;-73
2022/11/25 22:58:37;;;;;;;8.82;4.57;;;;;;;9.42;100.00;101394.63;10388583;28;97132;-73
2022/11/25 23:03:41;;;;;;;9.60;5.45;;;;;;;9.34;100.00;101412.06;10359923;28;99172;-73
2022/11/25 23:08:44;;;;;;;9.32;5.05;;;;;;;9.33;100.00;101392.06;10361627;28;98438;-73
2022/11/25 23:13:49;;;;;;;8.10;4.82;;;;;;;9.31;100.00;101396.44;10367731;28;96853;-73
2022/11/25 23:18:53;;;;;;;9.98;5.68;;;;;;;9.46;100.00;101385.88;10361178;28;97234;-73
2022/11/25 23:23:56;;;;;;;9.88;5.35;;;;;;;9.53;100.00;101394.53;10352382;28;97312;-73
2022/11/25 23:29:01;;;;;;;9.70;5.03;;;;;;;9.66;100.00;101382.22;10371749;28;97125;-72
2022/11/25 23:34:05;;;;;;;9.52;5.70;;;;;;;9.69;100.00;101386.56;10364832;28;98298;-72